Time;durP1;ratioP1;P1;durP2;ratioP2;P2;SDS_P1;SDS_P2;PMS_P1;PMS_P2;Temp;Humidity;BMP_temperature;BMP_pressure;BME280_temperature;BME280_humidity;BME280_pressure;Samples;Min_cycle;Max_cycle;Signal;HPM_P1;HPM_P2
2022/01/25 00:10:39;;;;;;;;;84.00;69.25;;;;;6.71;100.00;102943.50;5015490;28;45680;-80
2022/01/25 00:24:15;;;;;;;;;79.75;62.25;;;;;6.69;100.00;102944.13;5026041;28;45478;-81
2022/01/25 00:24:30;;;;;;;;;79.50;61.75;;;;;6.63;100.00;102942.78;5038574;28;45355;-78
2022/01/25 00:32:20;;;;;;;;;84.00;68.00;;;;;6.56;100.00;102942.97;5037521;28;45753;-75
2022/01/25 00:34:46;;;;;;;;;87.50;72.75;;;;;6.56;100.00;102947.19;5019829;28;45317;-76
2022/01/25 00:37:12;;;;;;;;;89.50;69.00;;;;;6.54;100.00;102940.97;5038000;28;45328;-76
2022/01/25 00:39:38;;;;;;;;;87.50;71.50;;;;;6.56;100.00;102947.19;5037967;28;45558;-75
2022/01/25 00:42:07;;;;;;;;;88.25;72.50;;;;;6.56;100.00;102940.38;5037331;28;45584;-75
2022/01/25 00:44:37;;;;;;;;;86.75;68.50;;;;;6.57;100.00;102943.84;5037416;28;45336;-77
2022/01/25 00:47:05;;;;;;;;;85.75;68.00;;;;;6.59;100.00;102944.91;5038014;28;45355;-84
2022/01/25 00:49:33;;;;;;;;;85.00;65.25;;;;;6.60;100.00;102939.91;5038169;28;45331;-84
2022/01/25 00:52:06;;;;;;;;;86.50;69.75;;;;;6.60;100.00;102941.56;5039232;28;46069;-83
2022/01/25 00:54:34;;;;;;;;;88.00;72.00;;;;;6.64;100.00;102938.53;5043209;28;45677;-81
2022/01/25 00:57:01;;;;;;;;;88.50;74.50;;;;;6.65;100.00;102940.34;5022599;28;45253;-80
2022/01/25 00:59:31;;;;;;;;;87.00;69.50;;;;;6.63;100.00;102936.72;5039777;28;45894;-75
2022/01/25 01:02:02;;;;;;;;;87.50;73.50;;;;;6.66;100.00;102932.78;5037405;28;45433;-76
2022/01/25 01:04:30;;;;;;;;;89.25;73.75;;;;;6.65;100.00;102924.88;5037379;28;45418;-80
2022/01/25 01:06:56;;;;;;;;;90.50;75.75;;;;;6.66;100.00;102930.19;5022090;28;45309;-83
2022/01/25 01:09:23;;;;;;;;;90.75;77.50;;;;;6.66;100.00;102932.78;5038369;28;45272;-79
2022/01/25 01:12:00;;;;;;;;;85.25;70.00;;;;;6.69;100.00;102933.84;5032661;28;46745;-84
2022/01/25 01:17:39;;;;;;;;;88.00;72.50;;;;;6.63;100.00;102932.47;5037336;28;45513;-83
2022/01/25 01:31:26;;;;;;;;;86.50;65.50;;;;;6.56;100.00;102944.59;5030713;28;45512;-79
2022/01/25 01:41:53;;;;;;;;;87.75;66.00;;;;;6.40;100.00;102942.22;5037418;28;45880;-79
2022/01/25 01:44:24;;;;;;;;;84.50;64.50;;;;;6.37;100.00;102948.00;5018796;28;46729;-81
2022/01/25 01:47:03;;;;;;;;;88.25;65.00;;;;;6.32;100.00;102944.97;5036660;28;45392;-81
2022/01/25 01:49:30;;;;;;;;;76.25;58.50;;;;;6.26;100.00;102946.06;5037432;28;45395;-83
2022/01/25 01:51:56;;;;;;;;;74.75;57.75;;;;;6.17;100.00;102954.69;5042915;28;45552;-82
2022/01/25 01:54:21;;;;;;;;;78.00;58.00;;;;;6.11;100.00;102959.22;5038157;28;45791;-82
2022/01/25 01:56:47;;;;;;;;;73.75;54.75;;;;;6.06;100.00;102963.03;5036355;28;45362;-82
2022/01/25 01:59:15;;;;;;;;;71.25;55.25;;;;;6.00;100.00;102959.84;5036478;28;45399;-82
2022/01/25 02:01:45;;;;;;;;;66.75;54.25;;;;;5.95;100.00;102969.63;5018700;28;45506;-81
2022/01/25 02:04:13;;;;;;;;;69.75;55.25;;;;;5.85;100.00;102970.41;5036551;28;45349;-81
2022/01/25 02:06:39;;;;;;;;;73.25;56.25;;;;;5.78;100.00;102967.06;5036356;28;45363;-82
2022/01/25 02:09:07;;;;;;;;;75.25;59.25;;;;;5.73;100.00;102959.81;5036671;28;45409;-81
2022/01/25 02:11:32;;;;;;;;;74.50;58.50;;;;;5.70;100.00;102968.88;5036739;28;45399;-82
2022/01/25 02:14:04;;;;;;;;;79.00;58.75;;;;;5.62;100.00;102968.09;5018548;28;46779;-82
2022/01/25 02:16:41;;;;;;;;;82.25;61.25;;;;;5.56;100.00;102967.50;5036365;28;45312;-82
2022/01/25 02:24:39;;;;;;;;;78.00;62.00;;;;;5.30;100.00;102967.47;5036643;28;45346;-81
2022/01/25 02:27:05;;;;;;;;;82.00;63.00;;;;;5.19;100.00;102962.16;5020527;28;45830;-75
2022/01/25 02:29:31;;;;;;;;;82.00;61.50;;;;;5.11;100.00;102966.50;5017363;28;45397;-76
2022/01/25 02:31:57;;;;;;;;;80.00;62.00;;;;;5.09;100.00;102968.00;5036332;28;45969;-78
2022/01/25 02:34:25;;;;;;;;;76.50;58.25;;;;;5.05;100.00;102965.88;5036352;28;46303;-81
2022/01/25 02:37:01;;;;;;;;;77.25;58.50;;;;;5.02;100.00;102968.13;5035897;28;45173;-80
2022/01/25 02:39:28;;;;;;;;;75.25;58.25;;;;;4.98;100.00;102973.69;5037206;28;45328;-81
2022/01/25 02:41:53;;;;;;;;;66.25;53.50;;;;;4.91;100.00;102968.69;5037036;28;45537;-82
2022/01/25 02:44:23;;;;;;;;;73.75;59.25;;;;;4.90;100.00;102970.38;5036089;28;45390;-82
2022/01/25 02:49:18;;;;;;;;;76.75;60.00;;;;;4.90;100.00;102962.66;5046590;28;45403;-84
2022/01/25 02:51:47;;;;;;;;;71.50;57.50;;;;;4.93;100.00;102968.09;5024481;28;45333;-85
2022/01/25 02:54:15;;;;;;;;;71.00;57.00;;;;;4.88;100.00;102964.16;5012418;28;47125;-80
2022/01/25 02:56:43;;;;;;;;;71.25;55.75;;;;;4.87;100.00;102969.09;5037215;28;45860;-82
2022/01/25 02:59:10;;;;;;;;;71.50;55.00;;;;;4.87;100.00;102972.59;5036527;28;45289;-79
2022/01/25 03:01:37;;;;;;;;;69.75;54.25;;;;;4.83;100.00;102970.47;5035962;28;45395;-80
2022/01/25 03:04:05;;;;;;;;;74.25;57.75;;;;;4.76;100.00;102973.16;5036150;28;46062;-76
2022/01/25 03:06:31;;;;;;;;;68.50;55.00;;;;;4.71;100.00;102969.19;5035844;28;45730;-80
2022/01/25 03:08:57;;;;;;;;;68.75;55.25;;;;;4.68;100.00;102968.91;5030588;28;45436;-78
2022/01/25 03:11:24;;;;;;;;;68.75;54.75;;;;;4.66;100.00;102971.28;5034498;28;45586;-80
2022/01/25 03:13:55;;;;;;;;;71.25;55.50;;;;;4.64;100.00;102960.88;5006016;28;47084;-79
2022/01/25 03:16:38;;;;;;;;;64.75;51.25;;;;;4.67;100.00;102965.41;5028543;28;46043;-80
2022/01/25 03:19:43;;;;;;;;;70.75;55.75;;;;;4.71;100.00;102967.56;5029649;28;45375;-80
2022/01/25 03:24:55;;;;;;;;;71.50;56.50;;;;;4.74;100.00;102957.63;5026075;28;45369;-80
2022/01/25 03:27:21;;;;;;;;;72.75;54.25;;;;;4.73;100.00;102949.72;5024535;28;45356;-81
2022/01/25 03:29:46;;;;;;;;;69.25;50.75;;;;;4.72;100.00;102948.84;5024796;28;46496;-80
2022/01/25 03:32:12;;;;;;;;;67.75;53.00;;;;;4.74;100.00;102941.28;5023378;28;45637;-80
2022/01/25 03:34:37;;;;;;;;;58.00;49.50;;;;;4.77;100.00;102942.50;5025273;28;46063;-81
2022/01/25 03:37:03;;;;;;;;;69.50;53.50;;;;;4.78;100.00;102936.63;5026397;28;45435;-80
2022/01/25 03:39:29;;;;;;;;;67.00;52.75;;;;;4.78;100.00;102941.75;5023827;28;45502;-80
2022/01/25 03:41:55;;;;;;;;;50.25;42.75;;;;;4.79;100.00;102937.56;5019234;28;45408;-81
2022/01/25 03:44:20;;;;;;;;;69.00;51.25;;;;;4.82;100.00;102942.09;5019167;28;48187;-80
2022/01/25 03:52:00;;;;;;;;;56.25;45.25;;;;;4.92;100.00;102937.13;5036054;28;45462;-81
2022/01/25 03:54:26;;;;;;;;;65.00;54.25;;;;;4.91;100.00;102931.06;5039253;28;46238;-82
2022/01/25 03:56:52;;;;;;;;;61.25;50.25;;;;;4.93;100.00;102942.41;5021309;28;45407;-81
2022/01/25 03:59:17;;;;;;;;;62.25;45.00;;;;;4.95;100.00;102946.06;5038998;28;45379;-82
2022/01/25 04:01:43;;;;;;;;;59.25;49.00;;;;;4.98;100.00;102949.69;5038483;28;45237;-82
2022/01/25 04:04:13;;;;;;;;;65.75;52.50;;;;;4.98;100.00;102955.72;5036681;28;47823;-80
2022/01/25 04:06:43;;;;;;;;;66.75;52.25;;;;;4.98;100.00;102942.88;5038661;28;45374;-81
2022/01/25 04:09:09;;;;;;;;;62.25;47.50;;;;;4.99;100.00;102944.69;5020407;28;45409;-81
2022/01/25 04:11:36;;;;;;;;;59.75;49.25;;;;;4.99;100.00;102954.97;5038511;28;45330;-81
2022/01/25 04:14:03;;;;;;;;;57.00;39.25;;;;;4.91;100.00;102955.84;5022948;28;47351;-82
2022/01/25 04:16:34;;;;;;;;;65.00;49.50;;;;;4.91;100.00;102955.84;5023453;28;45504;-82
2022/01/25 04:19:07;;;;;;;;;61.75;48.75;;;;;4.90;100.00;102951.47;5040040;28;45362;-82
2022/01/25 04:26:44;;;;;;;;;59.00;45.50;;;;;4.81;100.00;102956.56;5037801;28;45835;-80
2022/01/25 04:29:10;;;;;;;;;58.25;45.50;;;;;4.79;100.00;102958.97;5038442;28;45244;-82
2022/01/25 04:31:37;;;;;;;;;61.50;47.75;;;;;4.82;100.00;102963.50;5019931;28;45463;-81
2022/01/25 04:34:23;;;;;;;;;60.25;47.25;;;;;4.83;100.00;102956.72;5039236;28;46131;-80
2022/01/25 04:48:47;;;;;;;;;64.50;50.50;;;;;4.80;100.00;102955.66;5040632;28;45419;-80
2022/01/25 04:56:34;;;;;;;;;62.00;46.75;;;;;4.75;100.00;102979.03;5037212;28;45889;-81
2022/01/25 04:58:36;;;;;;;;;49.00;40.00;;;;;4.71;100.00;102972.69;5033957;28;46039;-78
2022/01/25 05:01:01;;;;;;;;;59.25;44.75;;;;;4.73;100.00;102972.81;5037994;28;45435;-80
2022/01/25 05:03:39;;;;;;;;;55.75;43.75;;;;;4.74;100.00;102970.44;5019482;28;45632;-78
2022/01/25 05:06:11;;;;;;;;;57.25;43.25;;;;;4.72;100.00;102969.38;5037028;28;46171;-80
2022/01/25 05:08:42;;;;;;;;;58.25;46.00;;;;;4.72;100.00;102976.13;5036911;28;45873;-81
2022/01/25 05:11:21;;;;;;;;;62.25;47.75;;;;;4.73;100.00;102967.69;5040039;28;45355;-78
2022/01/25 05:13:54;;;;;;;;;60.50;48.25;;;;;4.73;100.00;102960.00;5041928;28;45296;-80
2022/01/25 05:16:36;;;;;;;;;60.00;47.50;;;;;4.68;100.00;102976.59;5038479;28;46171;-77
2022/01/25 05:24:27;;;;;;;;;57.75;45.25;;;;;4.72;100.00;102983.84;5038171;28;45419;-79
2022/01/25 05:26:53;;;;;;;;;58.75;46.25;;;;;4.66;100.00;102984.09;5037640;28;45359;-78
2022/01/25 05:29:18;;;;;;;;;49.75;42.50;;;;;4.61;100.00;102977.59;5037257;28;45412;-80
2022/01/25 05:31:44;;;;;;;;;58.25;45.25;;;;;4.65;100.00;102974.59;5036688;28;45394;-79
2022/01/25 05:34:10;;;;;;;;;62.00;49.75;;;;;4.60;100.00;102976.69;5037684;28;45362;-81
2022/01/25 05:36:38;;;;;;;;;58.75;46.50;;;;;4.60;100.00;102979.25;5036949;28;45335;-80
2022/01/25 05:39:11;;;;;;;;;59.25;49.00;;;;;4.57;100.00;102975.47;5038214;28;45812;-81
2022/01/25 05:41:36;;;;;;;;;60.25;48.50;;;;;4.54;100.00;102986.31;5042984;28;45335;-82
2022/01/25 05:44:24;;;;;;;;;63.50;51.00;;;;;4.58;100.00;102985.91;5037965;28;45589;-81
2022/01/25 05:49:19;;;;;;;;;64.50;51.00;;;;;4.51;100.00;102978.28;5038078;28;45868;-81
2022/01/25 05:51:45;;;;;;;;;60.50;46.50;;;;;4.48;100.00;102975.44;5018675;28;45385;-81
2022/01/25 05:54:12;;;;;;;;;62.25;47.00;;;;;4.48;100.00;102970.31;5035711;28;45275;-83
2022/01/25 05:56:38;;;;;;;;;69.00;53.00;;;;;4.47;100.00;102987.34;5035793;28;45473;-81
2022/01/25 05:59:03;;;;;;;;;59.25;45.00;;;;;4.44;100.00;102973.28;5017451;28;45347;-79
2022/01/25 06:01:29;;;;;;;;;68.50;49.75;;;;;4.43;100.00;102986.84;5028532;28;45369;-85
2022/01/25 06:03:55;;;;;;;;;62.25;46.00;;;;;4.38;100.00;102986.38;5014552;28;45650;-83
2022/01/25 06:06:21;;;;;;;;;64.00;49.50;;;;;4.35;100.00;102986.03;5036779;28;46035;-83
2022/01/25 06:08:47;;;;;;;;;61.25;48.50;;;;;4.39;100.00;102984.69;5037856;28;45944;-82
2022/01/25 06:11:13;;;;;;;;;59.75;47.25;;;;;4.42;100.00;102988.53;5005024;28;45378;-81
2022/01/25 06:13:39;;;;;;;;;63.75;48.25;;;;;4.44;100.00;102973.28;5038729;28;45355;-82
2022/01/25 06:16:05;;;;;;;;;66.50;48.50;;;;;4.42;100.00;102987.59;5026775;28;46165;-82
2022/01/25 06:18:30;;;;;;;;;51.00;42.50;;;;;4.30;100.00;102985.56;5016807;28;45783;-80
2022/01/25 06:20:56;;;;;;;;;58.50;50.00;;;;;4.26;100.00;102978.31;4999386;28;45292;-83
2022/01/25 06:23:22;;;;;;;;;58.00;49.00;;;;;4.24;100.00;102982.38;5019043;28;45324;-83
2022/01/25 06:25:47;;;;;;;;;56.00;44.50;;;;;4.24;100.00;102978.88;5017828;28;45186;-83
2022/01/25 06:28:17;;;;;;;;;54.50;45.00;;;;;4.24;100.00;102982.38;5019615;28;45194;-81
2022/01/25 06:30:44;;;;;;;;;58.00;44.75;;;;;4.18;100.00;102984.25;5021040;28;45394;-82
2022/01/25 06:33:09;;;;;;;;;59.50;47.00;;;;;4.12;100.00;102981.94;5018916;28;45317;-83
2022/01/25 06:35:35;;;;;;;;;60.75;47.00;;;;;4.10;100.00;102975.78;5036810;28;45820;-81
2022/01/25 06:38:01;;;;;;;;;59.75;47.50;;;;;4.11;100.00;102976.69;5038418;28;45534;-80
2022/01/25 06:40:28;;;;;;;;;62.00;47.00;;;;;4.11;100.00;102971.56;5039478;28;45304;-80
2022/01/25 06:42:54;;;;;;;;;60.25;46.00;;;;;4.08;100.00;102979.84;5042786;28;45232;-82
2022/01/25 06:45:22;;;;;;;;;58.00;44.00;;;;;4.04;100.00;102980.25;5024627;28;45274;-81
2022/01/25 06:47:50;;;;;;;;;61.00;46.00;;;;;4.06;100.00;102982.94;5035901;28;45406;-79
2022/01/25 06:50:23;;;;;;;;;64.75;46.50;;;;;4.02;100.00;102979.16;5036252;28;45478;-82
2022/01/25 06:52:48;;;;;;;;;54.50;42.00;;;;;3.95;100.00;102982.72;5035666;28;45493;-83
2022/01/25 06:55:16;;;;;;;;;53.00;44.00;;;;;3.93;100.00;102981.69;5036130;28;45377;-80
2022/01/25 06:57:43;;;;;;;;;58.50;45.00;;;;;3.92;100.00;102984.97;5017724;28;45406;-81
2022/01/25 07:00:19;;;;;;;;;60.50;47.00;;;;;3.93;100.00;102984.25;5035227;28;45242;-81
2022/01/25 07:02:44;;;;;;;;;57.75;45.75;;;;;3.97;100.00;102981.25;5031686;28;45308;-81
2022/01/25 07:05:10;;;;;;;;;63.25;50.25;;;;;3.98;100.00;102987.28;5033527;28;46390;-80
2022/01/25 07:07:38;;;;;;;;;64.50;48.00;;;;;3.99;100.00;102989.09;5041006;28;45395;-80
2022/01/25 07:10:06;;;;;;;;;58.50;46.00;;;;;4.00;100.00;102991.81;5036643;28;45487;-83
2022/01/25 07:12:32;;;;;;;;;59.50;47.50;;;;;3.96;100.00;102984.53;5035060;28;45470;-81
2022/01/25 07:14:58;;;;;;;;;56.00;45.00;;;;;3.96;100.00;102981.09;5039392;28;46259;-79
2022/01/25 07:17:23;;;;;;;;;52.25;44.50;;;;;3.98;100.00;102982.16;5035872;28;45273;-81
2022/01/25 07:19:50;;;;;;;;;60.50;44.50;;;;;3.99;100.00;102979.75;5035979;28;45387;-89
2022/01/25 07:22:16;;;;;;;;;61.50;46.75;;;;;3.98;100.00;102990.75;5035823;28;45204;-80
2022/01/25 07:24:42;;;;;;;;;59.00;47.50;;;;;3.99;100.00;102984.88;5028017;28;46078;-80
2022/01/25 07:27:07;;;;;;;;;56.50;45.00;;;;;3.91;100.00;102985.72;5029403;28;45338;-83
2022/01/25 07:29:34;;;;;;;;;60.50;44.75;;;;;3.87;100.00;102993.81;5022038;28;45402;-83
2022/01/25 07:32:00;;;;;;;;;61.50;45.00;;;;;3.89;100.00;102997.47;5028950;28;45797;-79
2022/01/25 07:34:27;;;;;;;;;54.25;44.00;;;;;3.90;100.00;103006.97;5018628;28;47650;-79
2022/01/25 07:36:52;;;;;;;;;60.00;42.25;;;;;3.89;100.00;102994.88;5006917;28;45817;-76
2022/01/25 07:39:18;;;;;;;;;62.50;48.00;;;;;3.85;100.00;102997.84;5036673;28;45251;-77
2022/01/25 07:41:45;;;;;;;;;62.25;47.75;;;;;3.83;100.00;103001.94;5025484;28;45604;-79
2022/01/25 07:44:11;;;;;;;;;55.75;45.75;;;;;3.85;100.00;103010.66;5036225;28;46123;-84
2022/01/25 07:46:37;;;;;;;;;63.75;47.75;;;;;3.87;100.00;103009.19;5020465;28;45946;-81
2022/01/25 07:49:03;;;;;;;;;59.75;45.25;;;;;3.89;100.00;103015.41;5036775;28;45474;-81
2022/01/25 07:51:30;;;;;;;;;63.25;48.25;;;;;3.87;100.00;103007.56;5029959;28;45545;-78
2022/01/25 07:53:59;;;;;;;;;64.25;50.25;;;;;3.90;100.00;103017.22;5038869;28;45341;-79
2022/01/25 07:56:25;;;;;;;;;61.00;47.25;;;;;3.93;100.00;103017.56;5037838;28;45919;-77
2022/01/25 07:58:50;;;;;;;;;58.00;43.00;;;;;3.97;100.00;103021.34;5038106;28;45390;-79
2022/01/25 08:01:16;;;;;;;;;64.75;47.75;;;;;4.01;100.00;103026.97;5040643;28;45631;-78
2022/01/25 08:03:43;;;;;;;;;67.50;50.25;;;;;4.03;100.00;103022.91;5049493;28;45434;-82
2022/01/25 08:06:10;;;;;;;;;60.00;45.25;;;;;4.07;100.00;103023.22;5023566;28;45403;-84
2022/01/25 08:08:36;;;;;;;;;59.50;48.00;;;;;4.07;100.00;103026.72;5037094;28;45517;-84
2022/01/25 08:11:03;;;;;;;;;55.75;44.00;;;;;4.08;100.00;103027.59;5028048;28;47180;-83
2022/01/25 08:13:29;;;;;;;;;64.00;46.25;;;;;4.08;100.00;103027.59;5030055;28;45225;-81
2022/01/25 08:15:55;;;;;;;;;60.50;45.25;;;;;4.10;100.00;103031.25;5031165;28;45968;-83
2022/01/25 08:18:21;;;;;;;;;62.00;46.25;;;;;4.10;100.00;103027.06;5032306;28;45472;-81
2022/01/25 08:20:47;;;;;;;;;60.75;49.50;;;;;4.12;100.00;103027.19;5013705;28;46003;-79
2022/01/25 08:23:13;;;;;;;;;66.00;46.50;;;;;4.13;100.00;103037.59;5027592;28;46110;-81
2022/01/25 08:25:39;;;;;;;;;61.00;47.25;;;;;4.12;100.00;103037.47;5011028;28;45490;-83
2022/01/25 08:28:05;;;;;;;;;63.75;48.75;;;;;4.12;100.00;103037.47;5029059;28;45402;-85
2022/01/25 08:30:31;;;;;;;;;57.75;45.75;;;;;4.09;100.00;103032.91;5010245;28;45655;-83
2022/01/25 08:32:57;;;;;;;;;61.25;47.00;;;;;4.06;100.00;103034.22;5029744;28;45475;-80
2022/01/25 08:35:22;;;;;;;;;59.00;45.25;;;;;4.08;100.00;103041.34;5039543;28;45242;-81
2022/01/25 08:37:48;;;;;;;;;55.75;47.25;;;;;4.09;100.00;103037.13;5037480;28;45186;-82
2022/01/25 08:40:14;;;;;;;;;61.75;46.75;;;;;4.13;100.00;103035.03;5031739;28;45448;-84
2022/01/25 08:42:39;;;;;;;;;51.75;41.50;;;;;4.13;100.00;103031.59;5021313;28;45373;-82
2022/01/25 08:45:07;;;;;;;;;63.00;46.50;;;;;4.16;100.00;103031.88;5034140;28;45415;-84
2022/01/25 08:47:33;;;;;;;;;60.25;45.25;;;;;4.12;100.00;103032.34;5038104;28;45296;-83
2022/01/25 08:49:59;;;;;;;;;61.50;47.00;;;;;4.11;100.00;103038.19;5039320;28;45709;-85
2022/01/25 08:52:27;;;;;;;;;57.25;46.75;;;;;4.11;100.00;103035.63;5033127;28;45480;-82
2022/01/25 08:54:53;;;;;;;;;62.50;46.25;;;;;4.10;100.00;103034.75;5001689;28;45772;-83
2022/01/25 08:57:19;;;;;;;;;62.50;46.25;;;;;4.13;100.00;103041.84;5018440;28;45177;-83
2022/01/25 08:59:45;;;;;;;;;67.25;50.50;;;;;4.09;100.00;103038.03;5020470;28;45230;-83
2022/01/25 09:02:11;;;;;;;;;59.75;46.25;;;;;4.11;100.00;103038.19;5039761;28;45938;-86
2022/01/25 09:04:36;;;;;;;;;61.75;46.25;;;;;4.12;100.00;103034.91;5041112;28;45999;-85
2022/01/25 09:07:02;;;;;;;;;62.25;45.25;;;;;4.11;100.00;103035.63;5038987;28;45439;-86
2022/01/25 09:09:28;;;;;;;;;62.75;52.00;;;;;4.12;100.00;103042.59;5038047;28;45523;-84
2022/01/25 09:11:54;;;;;;;;;67.00;48.75;;;;;4.12;100.00;103040.03;5038860;28;45807;-85
2022/01/25 09:14:19;;;;;;;;;66.75;50.00;;;;;4.11;100.00;103041.66;5037615;28;45384;-86
2022/01/25 09:16:45;;;;;;;;;66.50;51.00;;;;;4.10;100.00;103033.81;5037673;28;45371;-87
2022/01/25 09:19:11;;;;;;;;;67.50;50.00;;;;;4.11;100.00;103048.44;5038979;28;45652;-83
2022/01/25 09:21:37;;;;;;;;;61.50;50.25;;;;;4.10;100.00;103045.00;5037778;28;46082;-83
2022/01/25 09:24:02;;;;;;;;;64.50;49.50;;;;;4.10;100.00;103047.56;5037178;28;45496;-83
2022/01/25 09:26:28;;;;;;;;;61.00;48.50;;;;;4.08;100.00;103049.03;5038793;28;45235;-82
2022/01/25 09:28:55;;;;;;;;;58.00;49.00;;;;;4.07;100.00;103051.41;5038525;28;45612;-83
2022/01/25 09:31:26;;;;;;;;;63.50;49.00;;;;;4.08;100.00;103056.72;5039898;28;45504;-85
2022/01/25 09:33:52;;;;;;;;;38.75;30.50;;;;;4.09;100.00;103060.19;5030139;28;45602;-81
2022/01/25 09:36:18;;;;;;;;;65.75;50.50;;;;;4.02;100.00;103064.66;5004932;28;45350;-81
2022/01/25 09:38:44;;;;;;;;;61.50;47.25;;;;;3.95;100.00;103059.59;5003748;28;45425;-80
2022/01/25 09:41:10;;;;;;;;;62.00;46.50;;;;;3.97;100.00;103063.25;5036754;28;46519;-80
2022/01/25 09:43:35;;;;;;;;;61.25;49.25;;;;;3.97;100.00;103072.59;5036043;28;45250;-81
2022/01/25 09:46:02;;;;;;;;;59.25;45.25;;;;;4.00;100.00;103070.34;5019645;28;45514;-79
2022/01/25 09:48:28;;;;;;;;;58.50;46.75;;;;;3.97;100.00;103063.25;5015481;28;45502;-80
2022/01/25 09:50:56;;;;;;;;;65.00;47.75;;;;;3.98;100.00;103070.19;5026731;28;45474;-79
2022/01/25 09:53:22;;;;;;;;;66.50;49.25;;;;;4.02;100.00;103063.75;5025291;28;45739;-80
2022/01/25 09:55:47;;;;;;;;;62.25;50.50;;;;;4.06;100.00;103077.78;5039816;28;45398;-78
2022/01/25 09:58:16;;;;;;;;;62.25;45.25;;;;;4.02;100.00;103066.31;5014887;28;45503;-82
2022/01/25 10:00:46;;;;;;;;;63.25;44.25;;;;;4.01;100.00;103077.31;5034005;28;46196;-82
2022/01/25 10:03:25;;;;;;;;;62.00;46.00;;;;;3.94;100.00;103078.28;5021356;28;45582;-82
2022/01/25 10:05:55;;;;;;;;;60.75;46.75;;;;;3.84;100.00;103070.34;5028656;28;45462;-83
2022/01/25 10:08:27;;;;;;;;;61.50;46.00;;;;;3.81;100.00;103075.16;5030189;28;45642;-81
2022/01/25 10:10:59;;;;;;;;;59.75;44.00;;;;;3.79;100.00;103074.09;5035043;28;46359;-80
2022/01/25 10:13:29;;;;;;;;;57.50;45.75;;;;;3.78;100.00;103074.81;5023737;28;45317;-77
2022/01/25 10:16:09;;;;;;;;;58.00;45.75;;;;;3.82;100.00;103075.31;5025730;28;45291;-78
2022/01/25 10:18:47;;;;;;;;;56.75;44.00;;;;;3.88;100.00;103075.06;5016844;28;45471;-78
2022/01/25 10:21:42;;;;;;;;;52.00;41.75;;;;;3.91;100.00;103083.09;5021372;28;45425;-82
2022/01/25 10:24:12;;;;;;;;;68.00;45.75;;;;;3.98;100.00;103084.69;5003169;28;45427;-82
2022/01/25 10:26:57;;;;;;;;;57.00;46.25;;;;;3.93;100.00;103081.63;5023153;28;45471;-81
2022/01/25 10:29:32;;;;;;;;;63.00;47.25;;;;;3.95;100.00;103082.66;5003516;28;45655;-83
2022/01/25 10:32:05;;;;;;;;;57.00;45.75;;;;;4.01;100.00;103087.56;5019550;28;47893;-83
2022/01/25 10:34:45;;;;;;;;;63.50;45.00;;;;;3.97;100.00;103081.19;5027090;28;45871;-83
2022/01/25 10:37:13;;;;;;;;;60.50;46.75;;;;;3.95;100.00;103086.91;5028972;28;45405;-86
2022/01/25 10:39:43;;;;;;;;;59.25;45.00;;;;;3.94;100.00;103079.97;5037202;28;45391;-85
2022/01/25 10:42:17;;;;;;;;;64.25;45.25;;;;;3.96;100.00;103087.06;5022469;28;45376;-82
2022/01/25 10:44:50;;;;;;;;;62.00;44.75;;;;;3.97;100.00;103093.13;5019669;28;45169;-77
2022/01/25 10:47:18;;;;;;;;;60.00;42.75;;;;;3.96;100.00;103083.59;5036116;28;45274;-84
2022/01/25 10:49:48;;;;;;;;;51.25;41.75;;;;;3.94;100.00;103085.97;5034510;28;45429;-84
2022/01/25 10:52:23;;;;;;;;;60.50;49.00;;;;;3.96;100.00;103083.59;5036337;28;45510;-87
2022/01/25 10:54:48;;;;;;;;;60.00;48.00;;;;;4.00;100.00;103084.09;5038687;28;45394;-91
2022/01/25 10:57:20;;;;;;;;;59.50;43.00;;;;;4.02;100.00;103076.56;5039511;28;45371;-82
2022/01/25 11:00:00;;;;;;;;;65.00;48.25;;;;;4.08;100.00;103078.88;5040971;28;45427;-84
2022/01/25 11:02:27;;;;;;;;;67.00;47.25;;;;;4.16;100.00;103075.47;5013215;28;47319;-85
2022/01/25 11:05:08;;;;;;;;;59.75;45.50;;;;;4.22;100.00;103076.16;5035256;28;45293;-84
2022/01/25 11:07:46;;;;;;;;;60.75;47.75;;;;;4.25;100.00;103079.06;5018328;28;45324;-86
2022/01/25 11:10:18;;;;;;;;;54.25;42.75;;;;;4.22;100.00;103075.22;5032071;28;45414;-78
2022/01/25 11:13:04;;;;;;;;;44.50;36.25;;;;;4.25;100.00;103073.94;5014466;28;45541;-83
2022/01/25 11:15:30;;;;;;;;;58.50;46.00;;;;;4.32;100.00;103070.34;5025850;28;45563;-84
2022/01/25 11:17:56;;;;;;;;;61.25;46.25;;;;;4.42;100.00;103074.81;5032951;28;45487;-83
2022/01/25 11:20:22;;;;;;;;;63.50;47.50;;;;;4.47;100.00;103073.66;5035953;28;45473;-84
2022/01/25 11:22:48;;;;;;;;;63.25;47.00;;;;;4.48;100.00;103076.38;5033141;28;45393;-80
2022/01/25 11:25:18;;;;;;;;;62.00;46.50;;;;;4.47;100.00;103069.41;5037330;28;45312;-83
2022/01/25 11:27:45;;;;;;;;;44.75;37.50;;;;;4.47;100.00;103077.09;5036672;28;45583;-82
2022/01/25 11:30:16;;;;;;;;;67.75;47.50;;;;;4.48;100.00;103070.34;5017372;28;45539;-83
2022/01/25 11:32:47;;;;;;;;;62.25;48.25;;;;;4.51;100.00;103070.66;5034031;28;46442;-84
2022/01/25 11:35:19;;;;;;;;;67.00;49.50;;;;;4.53;100.00;103074.28;5033725;28;45910;-84
2022/01/25 11:37:47;;;;;;;;;62.25;50.00;;;;;4.58;100.00;103072.19;5033521;28;45896;-80
2022/01/25 11:40:26;;;;;;;;;62.75;46.75;;;;;4.62;100.00;103072.69;5036793;28;45522;-83
2022/01/25 11:42:57;;;;;;;;;60.25;45.50;;;;;4.67;100.00;103074.84;5043312;28;45503;-82
2022/01/25 11:45:25;;;;;;;;;64.75;47.75;;;;;4.65;100.00;103072.09;5021379;28;45250;-80
2022/01/25 11:47:53;;;;;;;;;55.25;44.75;;;;;4.64;100.00;103076.34;5033264;28;45570;-81
2022/01/25 11:50:19;;;;;;;;;66.50;49.50;;;;;4.64;100.00;103076.34;5037849;28;45540;-84
2022/01/25 11:52:51;;;;;;;;;60.50;46.75;;;;;4.62;100.00;103072.69;5018846;28;46009;-84
2022/01/25 11:55:22;;;;;;;;;65.25;47.50;;;;;4.61;100.00;103073.44;5039528;28;45702;-82
2022/01/25 11:57:59;;;;;;;;;65.50;50.50;;;;;4.59;100.00;103063.75;5038984;28;45365;-84
2022/01/25 12:00:56;;;;;;;;;70.50;51.25;;;;;4.59;100.00;103068.91;5037161;28;45241;-81
2022/01/25 12:03:24;;;;;;;;;65.25;47.25;;;;;4.57;100.00;103066.19;5017906;28;45683;-80
2022/01/25 12:05:58;;;;;;;;;59.00;47.00;;;;;4.57;100.00;103057.56;5036649;28;45770;-83
2022/01/25 12:08:38;;;;;;;;;63.00;49.50;;;;;4.53;100.00;103058.00;5057304;28;45414;-89
2022/01/25 12:11:32;;;;;;;;;62.75;44.50;;;;;4.60;100.00;103066.47;5049789;28;45216;-83
2022/01/25 12:14:24;;;;;;;;;59.00;45.00;;;;;4.55;100.00;103057.41;5036758;28;45382;-84
2022/01/25 12:16:58;;;;;;;;;64.00;45.25;;;;;4.59;100.00;103056.97;5020164;28;45761;-84
2022/01/25 12:19:47;;;;;;;;;58.75;46.00;;;;;4.64;100.00;103058.38;5035259;28;45418;-85
2022/01/25 12:22:35;;;;;;;;;61.50;43.75;;;;;4.67;100.00;103054.31;5059118;28;45539;-82
2022/01/25 12:25:24;;;;;;;;;57.50;42.00;;;;;4.71;100.00;103051.31;5043109;28;46535;-80
2022/01/25 12:28:05;;;;;;;;;61.75;45.00;;;;;4.74;100.00;103050.00;5039861;28;45390;-81
2022/01/25 12:30:33;;;;;;;;;62.25;47.50;;;;;4.78;100.00;103043.53;5019769;28;45369;-78
2022/01/25 12:33:04;;;;;;;;;59.75;44.25;;;;;4.80;100.00;103039.47;5036317;28;45509;-77
2022/01/25 12:35:34;;;;;;;;;55.50;44.75;;;;;4.79;100.00;103030.84;5019542;28;46176;-78
2022/01/25 12:38:03;;;;;;;;;61.00;44.25;;;;;4.79;100.00;103032.50;5023896;28;45398;-78
2022/01/25 12:40:32;;;;;;;;;59.25;45.75;;;;;4.80;100.00;103027.53;5028482;28;45398;-78
2022/01/25 12:43:05;;;;;;;;;55.00;42.25;;;;;4.79;100.00;103024.81;5037764;28;45566;-78
2022/01/25 12:45:40;;;;;;;;;66.00;49.00;;;;;4.78;100.00;103038.38;5019426;28;46903;-78
2022/01/25 12:48:09;;;;;;;;;59.25;45.00;;;;;4.74;100.00;103033.66;5037054;28;45806;-81
2022/01/25 12:50:42;;;;;;;;;63.00;48.00;;;;;4.72;100.00;103035.16;5036621;28;45438;-80